createdAt,value
2022-12-19T00:01:03.816Z,19.70
2022-12-19T00:03:32.605Z,20.60
2022-12-19T00:06:02.847Z,20.17
2022-12-19T00:08:33.258Z,21.80
2022-12-19T00:11:02.012Z,21.90
2022-12-19T00:13:31.210Z,23.03
2022-12-19T00:16:03.407Z,17.90
2022-12-19T00:18:32.149Z,22.47
2022-12-19T00:21:00.788Z,19.87
2022-12-19T00:23:29.670Z,21.30
2022-12-19T00:26:06.024Z,19.47
2022-12-19T00:28:33.509Z,19.50
2022-12-19T00:31:00.608Z,20.80
2022-12-19T00:33:28.330Z,21.13
2022-12-19T00:35:59.155Z,18.17
2022-12-19T00:38:26.805Z,21.83
2022-12-19T00:40:53.752Z,20.23
2022-12-19T00:43:20.980Z,19.23
2022-12-19T00:45:48.044Z,21.50
2022-12-19T00:48:16.044Z,19.57
2022-12-19T00:50:45.721Z,23.37
2022-12-19T00:53:14.402Z,23.00
2022-12-19T00:55:41.220Z,19.87
2022-12-19T00:58:08.300Z,18.43
2022-12-19T01:00:35.160Z,22.27
2022-12-19T01:03:02.295Z,21.67
2022-12-19T01:05:32.437Z,21.00
2022-12-19T01:08:00.140Z,18.27
2022-12-19T01:10:28.388Z,19.87
2022-12-19T01:12:55.344Z,18.50
2022-12-19T01:15:22.269Z,19.30
2022-12-19T01:17:49.952Z,18.97
2022-12-19T01:20:20.231Z,17.47
2022-12-19T01:22:57.012Z,19.00
2022-12-19T01:25:25.775Z,20.77
2022-12-19T01:27:56.994Z,19.83
2022-12-19T01:30:23.967Z,20.83
2022-12-19T01:32:52.195Z,19.10
2022-12-19T01:35:21.764Z,18.93
2022-12-19T01:37:49.944Z,19.63
2022-12-19T01:40:16.974Z,22.07
2022-12-19T01:42:44.116Z,21.87
2022-12-19T01:45:43.568Z,20.13
2022-12-19T01:48:18.698Z,20.03
2022-12-19T01:51:01.988Z,20.57
2022-12-19T01:53:35.177Z,18.47
2022-12-19T01:56:09.180Z,19.10
2022-12-19T01:58:38.482Z,20.13
2022-12-19T02:01:06.854Z,20.20
2022-12-19T02:03:36.003Z,18.07
2022-12-19T02:06:05.400Z,19.80
2022-12-19T02:08:32.680Z,19.07
2022-12-19T02:11:01.082Z,21.73
2022-12-19T02:13:28.105Z,21.10
2022-12-19T02:16:02.807Z,22.30
2022-12-19T02:18:42.454Z,19.93
2022-12-19T02:21:37.505Z,18.73
2022-12-19T02:24:32.417Z,18.60
2022-12-19T02:27:33.883Z,18.63
2022-12-19T02:30:10.842Z,20.60
2022-12-19T02:32:53.750Z,19.40
2022-12-19T02:35:30.149Z,18.57
2022-12-19T02:38:09.956Z,20.40
2022-12-19T02:40:45.194Z,22.93
2022-12-19T02:43:15.205Z,17.83
2022-12-19T02:45:43.413Z,22.77
2022-12-19T02:48:17.601Z,18.80
2022-12-19T02:50:50.231Z,19.50
2022-12-19T02:53:22.417Z,19.17
2022-12-19T02:56:05.581Z,21.20
2022-12-19T02:58:51.287Z,19.30
2022-12-19T03:01:34.270Z,19.40
2022-12-19T03:04:14.416Z,18.77
2022-12-19T03:06:49.099Z,21.63
2022-12-19T03:09:19.973Z,18.90
2022-12-19T03:11:49.626Z,18.40
2022-12-19T03:14:19.874Z,18.93
2022-12-19T03:16:47.070Z,19.77
2022-12-19T03:19:16.856Z,19.50
2022-12-19T03:21:45.240Z,17.30
2022-12-19T03:24:14.792Z,19.43
2022-12-19T03:26:48.152Z,18.63
2022-12-19T03:29:21.198Z,18.67
2022-12-19T03:31:48.499Z,18.37
2022-12-19T03:34:20.256Z,19.50
2022-12-19T03:36:50.030Z,18.33
2022-12-19T03:39:18.013Z,20.43
2022-12-19T03:42:04.354Z,17.50
2022-12-19T03:44:35.450Z,18.10
2022-12-19T03:47:08.834Z,20.10
2022-12-19T03:49:37.318Z,18.97
2022-12-19T03:52:12.888Z,19.50
2022-12-19T03:54:43.854Z,20.40
2022-12-19T03:57:16.000Z,16.63
2022-12-19T03:59:49.821Z,21.00
2022-12-19T04:02:20.368Z,19.00
2022-12-19T04:04:52.965Z,16.97
2022-12-19T04:07:21.212Z,18.70
2022-12-19T04:09:49.049Z,17.97
2022-12-19T04:12:18.849Z,18.80
2022-12-19T04:14:46.226Z,20.03
2022-12-19T04:17:20.600Z,21.10
2022-12-19T04:19:59.959Z,19.23
2022-12-19T04:22:31.914Z,22.03
2022-12-19T04:25:00.665Z,19.90
2022-12-19T04:27:29.495Z,17.80
2022-12-19T04:29:59.415Z,28.17
2022-12-19T04:32:29.012Z,25.33
2022-12-19T04:34:57.243Z,21.30
2022-12-19T04:37:25.484Z,19.80
2022-12-19T04:39:53.049Z,26.17
2022-12-19T04:42:20.350Z,19.67
2022-12-19T04:44:47.304Z,22.60
2022-12-19T04:47:14.366Z,20.33
2022-12-19T04:49:41.633Z,20.47
2022-12-19T04:52:09.880Z,24.97
2022-12-19T04:54:37.085Z,19.03
2022-12-19T04:57:04.535Z,21.83
2022-12-19T04:59:31.996Z,18.23
2022-12-19T05:01:59.141Z,19.27
2022-12-19T05:04:26.707Z,19.00
2022-12-19T05:06:54.539Z,19.33
2022-12-19T05:09:23.468Z,20.13
2022-12-19T05:11:51.615Z,18.77
2022-12-19T05:14:18.836Z,22.43
2022-12-19T05:16:46.276Z,22.50
2022-12-19T05:19:13.232Z,27.53
2022-12-19T05:21:41.386Z,18.80
2022-12-19T05:24:08.534Z,17.17
2022-12-19T05:26:37.641Z,19.67
2022-12-19T05:29:04.607Z,21.70
2022-12-19T05:31:31.632Z,17.87
2022-12-19T05:33:58.579Z,16.83
2022-12-19T05:36:32.157Z,21.90
2022-12-19T05:38:59.901Z,17.23
2022-12-19T05:41:26.923Z,15.27
2022-12-19T05:43:56.323Z,17.40
2022-12-19T05:46:23.984Z,17.33
2022-12-19T05:48:51.221Z,17.10
2022-12-19T05:51:18.604Z,16.77
2022-12-19T05:53:45.858Z,16.70
2022-12-19T05:56:14.847Z,19.57
2022-12-19T05:58:42.985Z,19.10
2022-12-19T06:01:13.980Z,15.97
2022-12-19T06:03:42.317Z,19.27
2022-12-19T06:06:11.081Z,21.33
2022-12-19T06:08:38.457Z,17.90
2022-12-19T06:11:07.721Z,19.97
2022-12-19T06:13:35.648Z,19.30
2022-12-19T06:16:05.030Z,19.83
2022-12-19T06:18:33.945Z,24.63
2022-12-19T06:21:02.493Z,19.37
2022-12-19T06:23:30.749Z,25.53
2022-12-19T06:25:57.986Z,25.83
2022-12-19T06:28:26.000Z,21.93
2022-12-19T06:30:55.373Z,18.43
2022-12-19T06:33:22.625Z,26.53
2022-12-19T06:35:57.719Z,18.97
2022-12-19T06:38:24.970Z,20.13
2022-12-19T06:41:10.580Z,22.20
2022-12-19T06:43:37.865Z,22.07
2022-12-19T06:46:05.604Z,20.87
2022-12-19T06:48:33.001Z,20.13
2022-12-19T06:51:01.530Z,25.60
2022-12-19T06:53:28.923Z,19.80
2022-12-19T06:55:58.015Z,20.73
2022-12-19T06:58:25.604Z,19.63
2022-12-19T07:00:53.798Z,19.43
2022-12-19T07:03:26.069Z,19.80
2022-12-19T07:05:53.521Z,20.93
2022-12-19T07:08:22.418Z,18.90
2022-12-19T07:10:49.397Z,18.73
2022-12-19T07:13:17.293Z,19.53
2022-12-19T07:15:44.511Z,22.17
2022-12-19T07:18:11.510Z,20.10
2022-12-19T07:20:45.053Z,19.97
2022-12-19T07:23:18.207Z,18.93
2022-12-19T07:25:46.962Z,19.90
2022-12-19T07:28:15.188Z,23.67
2022-12-19T07:30:42.338Z,24.30
2022-12-19T07:33:11.817Z,22.43
2022-12-19T07:35:39.925Z,24.83
2022-12-19T07:38:08.314Z,19.83
2022-12-19T07:40:36.054Z,26.53
2022-12-19T07:43:06.386Z,20.90
2022-12-19T07:45:33.688Z,21.23
2022-12-19T07:48:01.415Z,27.67
2022-12-19T07:50:29.532Z,26.87
2022-12-19T07:52:57.978Z,25.10
2022-12-19T07:55:25.075Z,24.87
2022-12-19T07:57:52.412Z,29.03
2022-12-19T08:00:21.623Z,27.67
2022-12-19T08:02:48.828Z,25.10
2022-12-19T08:05:16.357Z,26.10
2022-12-19T08:07:43.584Z,26.00
2022-12-19T08:10:12.515Z,27.40
2022-12-19T08:12:40.045Z,35.87
2022-12-19T08:15:07.877Z,28.50
2022-12-19T08:17:39.102Z,26.30
2022-12-19T08:20:08.956Z,28.57
2022-12-19T08:22:36.291Z,27.47
2022-12-19T08:25:03.448Z,28.07
2022-12-19T08:27:30.735Z,31.80
2022-12-19T08:29:57.608Z,27.60
2022-12-19T08:32:24.828Z,31.37
2022-12-19T08:34:54.644Z,30.33
2022-12-19T08:37:22.050Z,31.73
2022-12-19T08:39:50.004Z,34.63
2022-12-19T08:42:17.312Z,34.27
2022-12-19T08:44:44.180Z,33.13
2022-12-19T08:47:11.145Z,32.53
2022-12-19T08:49:38.053Z,30.73
2022-12-19T08:52:06.824Z,30.27
2022-12-19T08:54:33.910Z,26.27
2022-12-19T08:57:01.227Z,30.87
2022-12-19T08:59:31.645Z,25.60
2022-12-19T09:02:00.028Z,27.83
2022-12-19T09:05:59.965Z,30.10
2022-12-19T09:07:16.876Z,21.30
2022-12-19T09:09:43.845Z,25.33
2022-12-19T09:12:12.201Z,25.20
2022-12-19T09:14:39.097Z,25.97
2022-12-19T09:17:06.487Z,23.50
2022-12-19T09:19:33.691Z,26.57
2022-12-19T09:22:00.569Z,26.77
2022-12-19T09:24:29.078Z,23.90
2022-12-19T09:26:56.013Z,21.23
2022-12-19T09:29:22.892Z,21.63
2022-12-19T09:31:56.183Z,20.17
2022-12-19T09:34:25.217Z,23.77
2022-12-19T09:37:04.411Z,22.27
2022-12-19T09:39:33.282Z,19.37
2022-12-19T09:42:17.077Z,19.13
2022-12-19T09:45:14.608Z,16.97
2022-12-19T09:47:49.223Z,19.57
2022-12-19T09:50:28.370Z,17.80
2022-12-19T09:53:00.746Z,21.73
2022-12-19T09:55:33.835Z,17.70
2022-12-19T09:58:08.072Z,14.33
2022-12-19T10:00:41.609Z,16.40
2022-12-19T10:03:19.654Z,17.03
2022-12-19T10:06:25.496Z,19.53
2022-12-19T10:08:45.384Z,16.00
2022-12-19T10:12:40.546Z,15.03
2022-12-19T10:14:41.700Z,16.37
2022-12-19T10:17:24.880Z,18.27
2022-12-19T10:20:19.249Z,18.60
2022-12-19T10:22:56.123Z,17.07
2022-12-19T10:25:42.121Z,15.90
2022-12-19T10:28:25.948Z,16.47
2022-12-19T10:31:09.860Z,19.50
2022-12-19T10:33:47.504Z,19.97
2022-12-19T10:36:15.450Z,22.73
2022-12-19T10:38:52.638Z,23.37
2022-12-19T10:41:23.213Z,22.67
2022-12-19T10:43:59.344Z,27.10
2022-12-19T10:46:37.381Z,27.40
2022-12-19T10:49:12.355Z,25.47
2022-12-19T10:51:40.252Z,27.03
2022-12-19T10:54:07.589Z,23.33
2022-12-19T10:56:37.798Z,29.10
2022-12-19T10:59:17.323Z,26.70
2022-12-19T11:01:45.183Z,27.43
2022-12-19T11:04:21.517Z,23.83
2022-12-19T11:06:51.939Z,26.97
2022-12-19T11:09:29.223Z,27.60
2022-12-19T11:15:45.834Z,24.07
2022-12-19T11:21:06.103Z,26.27
2022-12-19T11:26:53.119Z,31.97
2022-12-19T11:29:26.287Z,29.67
2022-12-19T11:29:27.069Z,27.17
2022-12-19T11:29:40.715Z,32.13
2022-12-19T11:30:43.364Z,26.73
2022-12-19T11:34:30.169Z,31.97
2022-12-19T11:37:03.872Z,33.40
2022-12-19T11:39:36.953Z,28.77
2022-12-19T11:42:11.517Z,28.90
2022-12-19T11:44:45.777Z,31.67
2022-12-19T11:47:26.968Z,33.57
2022-12-19T11:49:59.691Z,31.93
2022-12-19T11:53:03.806Z,25.43
2022-12-19T11:55:28.941Z,26.37
2022-12-19T11:57:55.933Z,23.57
2022-12-19T12:00:24.626Z,25.97
2022-12-19T12:03:25.070Z,27.07
2022-12-19T12:05:52.171Z,20.43
2022-12-19T12:11:33.606Z,27.70
2022-12-19T12:20:11.218Z,26.50
2022-12-19T12:23:42.191Z,22.83
2022-12-19T12:26:01.270Z,22.60
2022-12-19T12:31:32.292Z,28.37
2022-12-19T12:31:40.237Z,24.43
2022-12-19T12:31:51.873Z,26.50
2022-12-19T12:35:12.468Z,25.83
2022-12-19T12:35:33.124Z,25.13
2022-12-19T12:38:40.855Z,27.07
2022-12-19T12:41:42.070Z,28.23
2022-12-19T12:44:12.373Z,22.53
2022-12-19T12:46:43.732Z,23.30
2022-12-19T12:49:29.228Z,26.57
2022-12-19T12:51:59.257Z,27.43
2022-12-19T12:54:32.328Z,21.80
2022-12-19T12:56:59.391Z,18.83
2022-12-19T12:59:28.138Z,26.57
2022-12-19T13:01:57.438Z,23.60
2022-12-19T13:04:41.368Z,22.17
2022-12-19T13:07:26.272Z,27.33
2022-12-19T13:10:06.093Z,27.00
2022-12-19T13:12:51.349Z,30.63
2022-12-19T13:15:42.603Z,27.10
2022-12-19T13:18:30.591Z,29.13
2022-12-19T13:20:58.573Z,24.47
2022-12-19T13:23:50.833Z,23.93
2022-12-19T13:26:46.431Z,25.37
2022-12-19T13:29:31.664Z,33.50
2022-12-19T13:32:17.879Z,26.10
2022-12-19T13:35:01.699Z,25.30
2022-12-19T13:39:55.755Z,25.07
2022-12-19T13:40:54.180Z,25.57
2022-12-19T13:43:43.888Z,25.03
2022-12-19T13:46:24.434Z,24.20
2022-12-19T13:48:53.828Z,22.30
2022-12-19T13:51:21.109Z,24.90
2022-12-19T13:53:59.274Z,26.20
2022-12-19T13:56:30.939Z,15.97
2022-12-19T13:59:00.952Z,23.17
2022-12-19T14:01:30.679Z,23.50
2022-12-19T14:04:07.718Z,25.43
2022-12-19T14:06:42.554Z,27.40
2022-12-19T14:11:25.600Z,21.10
2022-12-19T14:13:44.653Z,23.57
2022-12-19T14:15:32.357Z,23.57
2022-12-19T14:18:08.194Z,22.07
2022-12-19T14:22:05.491Z,22.20
2022-12-19T14:23:44.218Z,18.53
2022-12-19T14:28:18.040Z,21.27
2022-12-19T14:29:09.313Z,22.67
2022-12-19T14:31:38.755Z,23.17
2022-12-19T14:35:29.588Z,23.73
2022-12-19T14:37:37.136Z,22.47
2022-12-19T14:40:23.675Z,22.40
2022-12-19T14:43:56.999Z,23.03
2022-12-19T14:52:08.675Z,26.13
2022-12-19T14:53:52.088Z,27.20
2022-12-19T14:54:30.694Z,24.13
2022-12-19T14:57:46.363Z,28.77
2022-12-19T15:01:10.368Z,21.90
2022-12-19T15:03:21.883Z,23.13
2022-12-19T15:05:49.660Z,22.33
2022-12-19T15:11:00.747Z,22.23
2022-12-19T15:11:49.976Z,21.60
2022-12-19T15:14:50.665Z,21.73
2022-12-19T15:17:21.715Z,19.27
2022-12-19T15:19:51.722Z,25.00
2022-12-19T15:22:19.508Z,19.77
2022-12-19T15:24:46.641Z,23.87
2022-12-19T15:27:15.765Z,25.00
2022-12-19T15:29:43.973Z,24.03
2022-12-19T15:32:14.328Z,20.10
2022-12-19T15:34:50.437Z,22.50
2022-12-19T15:37:19.569Z,23.27
2022-12-19T15:39:46.896Z,23.13
2022-12-19T15:42:19.013Z,25.50
2022-12-19T15:44:47.416Z,22.13
2022-12-19T15:47:18.555Z,28.80
2022-12-19T15:49:46.103Z,23.23
2022-12-19T15:52:16.892Z,24.80
2022-12-19T15:54:48.600Z,23.50
2022-12-19T15:57:24.178Z,24.23
2022-12-19T15:59:52.288Z,20.90
2022-12-19T16:02:37.351Z,20.77
2022-12-19T16:05:14.278Z,22.70
2022-12-19T16:07:41.481Z,18.50
2022-12-19T16:10:12.734Z,25.67
2022-12-19T16:12:42.002Z,23.17
2022-12-19T16:15:15.381Z,25.10
2022-12-19T16:17:42.450Z,29.30
2022-12-19T16:20:19.374Z,26.23
2022-12-19T16:22:46.454Z,27.13
2022-12-19T16:25:15.708Z,26.73
2022-12-19T16:27:43.992Z,30.33
2022-12-19T16:30:20.228Z,23.67
2022-12-19T16:32:48.078Z,21.00
2022-12-19T16:35:55.077Z,24.60
2022-12-19T16:38:11.380Z,35.93
2022-12-19T16:40:42.687Z,30.23
2022-12-19T16:43:15.745Z,31.63
2022-12-19T16:45:43.857Z,27.97
2022-12-19T16:48:21.397Z,27.37
2022-12-19T16:50:49.705Z,24.00
2022-12-19T16:53:17.289Z,27.97
2022-12-19T16:55:48.142Z,25.53
2022-12-19T16:58:18.436Z,26.40
2022-12-19T17:00:45.940Z,25.73
2022-12-19T17:03:27.766Z,20.37
2022-12-19T17:05:55.186Z,21.13
2022-12-19T17:08:22.637Z,18.97
2022-12-19T17:10:52.301Z,23.93
2022-12-19T17:13:19.886Z,21.57
2022-12-19T17:15:51.161Z,21.67
2022-12-19T17:18:27.879Z,20.50
2022-12-19T17:20:55.393Z,23.07
2022-12-19T17:23:24.337Z,22.23
2022-12-19T17:25:55.093Z,22.27
2022-12-19T17:28:22.412Z,23.43
2022-12-19T17:30:52.572Z,21.70
2022-12-19T17:33:22.150Z,22.03
2022-12-19T17:35:49.272Z,23.00
2022-12-19T17:38:17.559Z,22.73
2022-12-19T17:40:45.378Z,22.23
2022-12-19T17:43:13.616Z,23.30
2022-12-19T17:45:41.351Z,21.43
2022-12-19T17:48:18.427Z,22.80
2022-12-19T17:50:45.741Z,21.77
2022-12-19T17:53:14.106Z,27.60
2022-12-19T17:55:41.609Z,20.50
2022-12-19T17:58:09.367Z,20.03
2022-12-19T18:00:39.339Z,20.87
2022-12-19T18:03:16.823Z,24.93
2022-12-19T18:05:44.259Z,20.30
2022-12-19T18:08:25.299Z,18.53
2022-12-19T18:10:52.986Z,18.50
2022-12-19T18:13:20.481Z,16.47
2022-12-19T18:15:49.263Z,17.57
2022-12-19T18:18:22.545Z,20.60
2022-12-19T18:20:49.514Z,20.70
2022-12-19T18:23:18.090Z,19.07
2022-12-19T18:25:46.324Z,17.93
2022-12-19T18:28:13.537Z,15.67
2022-12-19T18:30:41.572Z,19.17
2022-12-19T18:33:15.158Z,18.43
2022-12-19T18:35:45.205Z,18.13
2022-12-19T18:38:17.691Z,20.50
2022-12-19T18:40:45.793Z,17.80
2022-12-19T18:43:14.053Z,15.77
2022-12-19T18:45:43.339Z,19.37
2022-12-19T18:48:20.479Z,15.47
2022-12-19T18:50:47.386Z,20.23
2022-12-19T18:53:17.193Z,14.50
2022-12-19T18:55:44.502Z,13.97
2022-12-19T18:58:11.354Z,17.30
2022-12-19T19:00:39.220Z,19.37
2022-12-19T19:03:12.368Z,14.00
2022-12-19T19:05:41.321Z,15.00
2022-12-19T19:08:16.168Z,17.17
2022-12-19T19:10:44.263Z,18.13
2022-12-19T19:13:11.223Z,17.83
2022-12-19T19:15:42.754Z,13.03
2022-12-19T19:18:09.676Z,16.37
2022-12-19T19:20:41.527Z,19.20
2022-12-19T19:23:11.253Z,17.80
2022-12-19T19:25:39.018Z,21.17
2022-12-19T19:28:06.686Z,19.70
2022-12-19T19:30:36.900Z,17.73
2022-12-19T19:33:07.379Z,16.23
2022-12-19T19:35:35.298Z,17.67
2022-12-19T19:38:07.848Z,20.07
2022-12-19T19:40:36.135Z,21.77
2022-12-19T19:43:03.546Z,19.87
2022-12-19T19:45:30.862Z,19.00
2022-12-19T19:47:57.836Z,16.30
2022-12-19T19:50:25.154Z,21.77
2022-12-19T19:52:52.073Z,18.67
2022-12-19T19:55:20.708Z,22.27
2022-12-19T19:57:47.593Z,17.17
2022-12-19T20:00:15.395Z,22.33
2022-12-19T20:02:42.540Z,21.37
2022-12-19T20:05:10.946Z,19.50
2022-12-19T20:07:38.214Z,16.73
2022-12-19T20:10:06.512Z,18.73
2022-12-19T20:12:34.872Z,18.37
2022-12-19T20:15:02.175Z,18.03
2022-12-19T20:17:29.083Z,17.10
2022-12-19T20:19:56.405Z,24.70
2022-12-19T20:22:23.284Z,18.83
2022-12-19T20:24:50.212Z,17.87
2022-12-19T20:27:17.221Z,22.70
2022-12-19T20:29:45.895Z,19.97
2022-12-19T20:32:14.676Z,19.40
2022-12-19T20:34:41.997Z,19.97
2022-12-19T20:37:08.929Z,19.77
2022-12-19T20:39:36.297Z,18.70
2022-12-19T20:42:03.295Z,18.37
2022-12-19T20:44:30.938Z,18.27
2022-12-19T20:46:59.745Z,18.63
2022-12-19T20:49:27.225Z,19.80
2022-12-19T20:51:54.245Z,19.83
2022-12-19T20:54:21.474Z,25.50
2022-12-19T20:56:48.351Z,18.30
2022-12-19T20:59:15.321Z,22.70
2022-12-19T21:01:42.324Z,24.17
2022-12-19T21:04:11.107Z,15.40
2022-12-19T21:06:39.390Z,18.40
2022-12-19T21:09:06.573Z,16.73
2022-12-19T21:11:35.552Z,18.90
2022-12-19T21:14:03.008Z,17.30
2022-12-19T21:16:30.471Z,26.87
2022-12-19T21:18:57.687Z,20.40
2022-12-19T21:21:26.771Z,20.07
2022-12-19T21:23:55.323Z,18.67
2022-12-19T21:26:24.543Z,19.23
2022-12-19T21:28:52.099Z,19.60
2022-12-19T21:31:21.615Z,16.87
2022-12-19T21:33:49.742Z,17.23
2022-12-19T21:36:20.085Z,22.73
2022-12-19T21:38:50.225Z,19.20
2022-12-19T21:41:19.199Z,22.83
2022-12-19T21:43:47.834Z,22.17
2022-12-19T21:46:16.597Z,19.10
2022-12-19T21:48:45.670Z,28.07
2022-12-19T21:51:14.292Z,20.57
2022-12-19T21:53:41.967Z,19.60
2022-12-19T21:56:19.761Z,23.57
2022-12-19T21:58:46.617Z,16.60
2022-12-19T22:01:14.073Z,20.10
2022-12-19T22:03:41.661Z,21.50
2022-12-19T22:06:13.819Z,19.30
2022-12-19T22:08:41.832Z,16.33
2022-12-19T22:11:13.507Z,17.77
2022-12-19T22:13:40.478Z,19.60
2022-12-19T22:16:08.046Z,17.47
2022-12-19T22:18:35.792Z,19.87
2022-12-19T22:21:03.272Z,20.97
2022-12-19T22:23:31.196Z,19.10
2022-12-19T22:26:03.022Z,18.70
2022-12-19T22:28:33.474Z,18.97
2022-12-19T22:31:00.520Z,20.13
2022-12-19T22:33:28.298Z,16.93
2022-12-19T22:35:55.455Z,18.43
2022-12-19T22:38:22.407Z,17.67
2022-12-19T22:40:49.344Z,17.60
2022-12-19T22:43:16.367Z,19.83
2022-12-19T22:45:45.766Z,18.97
2022-12-19T22:48:12.749Z,20.23
2022-12-19T22:50:47.997Z,20.67
2022-12-19T22:53:15.348Z,18.60
2022-12-19T22:55:42.835Z,21.30
2022-12-19T22:58:09.866Z,22.07
2022-12-19T23:00:37.100Z,19.67
2022-12-19T23:03:08.624Z,18.70
2022-12-19T23:05:36.204Z,24.40
2022-12-19T23:08:03.691Z,20.90
2022-12-19T23:10:30.964Z,20.27
2022-12-19T23:12:58.285Z,24.40
2022-12-19T23:15:25.147Z,25.03
2022-12-19T23:17:53.297Z,22.07
2022-12-19T23:20:21.540Z,19.83
2022-12-19T23:22:49.022Z,23.70
2022-12-19T23:25:16.178Z,24.73
2022-12-19T23:27:44.075Z,25.97
2022-12-19T23:30:11.888Z,23.63
2022-12-19T23:32:39.172Z,26.43
2022-12-19T23:35:07.186Z,27.70
2022-12-19T23:37:35.984Z,22.07
2022-12-19T23:40:03.303Z,27.00
2022-12-19T23:42:30.247Z,25.43
2022-12-19T23:44:57.239Z,23.23
2022-12-19T23:47:24.630Z,25.80
2022-12-19T23:49:51.501Z,29.07
2022-12-19T23:52:18.745Z,26.70
2022-12-19T23:54:47.832Z,22.73
2022-12-19T23:57:14.826Z,20.10
2022-12-19T23:59:41.760Z,22.93
